METAR Data
IDs: Format: Raw Decoded Include TAF

Data at: 1833 UTC 16 Oct 2021

KHOU 161753Z 03017G23KT 10SM FEW180 FEW250 23/06 A3026 RMK AO2 PK WND 04026/1700 SLP252 T02330056 10233 20172 58008 $
KHOU 161653Z 02018KT 10SM FEW180 FEW250 22/05 A3028 RMK AO2 SLP257 T02220050 $
KHOU 161553Z 03018G25KT 10SM FEW180 FEW250 21/06 A3028 RMK AO2 PK WND 05027/1525 SLP260 T02110056 $
KHOU 161453Z 02018G25KT 10SM FEW180 FEW250 19/07 A3029 RMK AO2 SLP260 T01940067 52020 $
KHOU 161353Z 02015G23KT 10SM FEW160 FEW250 19/08 A3027 RMK AO2 SLP254 T01890083 $
KHOU 161253Z 02017G25KT 10SM FEW160 SCT250 18/09 A3024 RMK AO2 SLP246 T01780089 $
KHOU 161153Z 01016G24KT 10SM FEW060 FEW160 SCT250 18/08 A3023 RMK AO2 SLP240 70004 T01830083 10222 20183 53028 $
KHOU 161053Z 01014G22KT 10SM FEW160 SCT250 18/08 A3019 RMK AO2 SLP229 T01830083
KHOU 160953Z 02015G20KT 10SM FEW160 SCT250 19/08 A3017 RMK AO2 SLP219 T01940078
KHOU 160853Z 02017G24KT 10SM SCT160 SCT250 20/08 A3014 RMK AO2 SLP212 T02000078 51013
KHOU 160753Z 01016KT 10SM FEW060 BKN250 21/11 A3013 RMK AO2 PK WND 35026/0712 SLP209 T02060106
KHOU 160653Z 36018G24KT 10SM FEW055 FEW160 SCT250 22/13 A3012 RMK AO2 SLP204 T02170128
KHOU 160553Z COR 36018G27KT 10SM FEW055 FEW160 SCT250 22/14 A3011 RMK AO2 PK WND 36027/0539 SLP199 60003 T02220144 10289 20222 403390222 51026
KHOU 160453Z 35016KT 10SM FEW055 SCT250 23/16 A3009 RMK AO2 SLP194 T02330161
KHOU 160353Z 35014G20KT 10SM SCT049 BKN250 25/18 A3007 RMK AO2 SLP187 T02500178
KHOU 160253Z 36009G18KT 10SM SCT044 BKN250 27/19 A3003 RMK AO2 SLP173 60003 T02670189 53033
KHOU 160153Z 36018G23KT 10SM FEW034 SCT047 SCT090 BKN250 27/21 A2998 RMK AO2 RAE0058 SLP158 P0002 T02720206
KHOU 160053Z 26006KT 8SM -RA SCT042 BKN070 BKN250 27/23 A2995 RMK AO2 RAB40 SLP146 P0001 T02720228
KHOU 152353Z 13004KT 10SM FEW050 SCT080 SCT250 29/22 A2993 RMK AO2 SLP140 60001 T02890222 10339 20261 53009
KHOU 152253Z 28003KT 10SM FEW055 SCT090 SCT250 31/19 A2992 RMK AO2 LTG DSNT NE AND E SLP134 T03110194
KHOU 152153Z 01003KT 10SM FEW050 SCT095 BKN250 30/22 A2989 RMK AO2 PK WND 31029/2054 LTG DSNT NE-S RAE22 TSE37 SLP125 TS MOVD E CB DSNT NE-E MOV SE P0001 T03000222
KHOU 152137Z 01007KT 10SM FEW050 SCT095 BKN250 29/22 A2989 RMK AO2 PK WND 31029/2054 LTG DSNT ALQDS RAE22 TSE37 TS MOVD E P0001 T02940222
KHOU 152053Z COR 30022G33KT 10SM -TSRA BKN043CB BKN250 28/22 A2990 RMK AO2 PK WND 30033/2045 RAB50 TSB37 SLP131 OCNL LTGIC SW-NW TS SW-NW MOV SE P0000 60000 T02780217 55008
KHOU 152037Z COR 27007KT 10SM TS BKN043CB BKN250 33/21 A2989 RMK AO2 LTG DSNT W AND NW TSB37 OCNL LTGIC W-NW TS W-NW MOV SE T03330211
KHOU 151953Z 25008KT 10SM SCT040 33/22 A2989 RMK AO2 LTG DSNT NW SLP125 T03330222
KHOU 151853Z 00000KT 10SM SCT035 32/22 A2991 RMK AO2 SLP133 T03220217
KHOU 151753Z 22007KT 10SM SCT030 32/23 A2993 RMK AO2 SLP139 T03220228 10322 20261 58005
KHOU 151653Z 22007KT 10SM SCT025 32/23 A2995 RMK AO2 SLP146 T03170228
KHOU 151553Z 22005KT 10SM SCT015 BKN055 30/24 A2996 RMK AO2 SLP148 T03000239
KHOU 151453Z 18005KT 10SM FEW020 BKN055 28/25 A2995 RMK AO2 SLP145 T02830250 53019 $
KHOU 151353Z 18004KT 10SM FEW020 BKN050 27/24 A2992 RMK AO2 SLP138 T02720244 $
KHOU 151253Z 18004KT 10SM BKN050 27/24 A2990 RMK AO2 SLP130 T02720239 $
KHOU 151153Z 16006KT 10SM BKN050 BKN250 26/24 A2989 RMK AO2 SLP126 70016 T02610239 10261 20256 53008 $
KHOU 151053Z 16005KT 10SM OVC050 26/24 A2987 RMK AO2 SLP121 T02610239 $
KHOU 150953Z COR 15005KT 10SM BKN048 BKN250 26/24 A2987 RMK AO2 SLP119 T02560239
KHOU 150853Z 15006KT 10SM FEW020 BKN045 BKN250 26/24 A2987 RMK AO2 SLP118 T02610239 58003
KHOU 150753Z 15005KT 9SM FEW020 BKN045 BKN250 26/24 A2987 RMK AO2 SLP121 T02610239
KHOU 150653Z COR 14005KT 10SM FEW015 SCT030 BKN250 26/24 A2988 RMK AO2 SLP122 T02610239